sensor_id;sensor_type;location;lat;lon;timestamp;pressure;altitude;pressure_sealevel;temperature;humidity
56658;BME280;42530;52.240;19.354;2022-12-05T00:01:26;53514.75;;;-144.69;69.45
56658;BME280;42530;52.240;19.354;2022-12-05T00:03:55;53506.44;;;-144.69;69.72
56658;BME280;42530;52.240;19.354;2022-12-05T00:06:22;53464.81;;;-144.69;69.69
56658;BME280;42530;52.240;19.354;2022-12-05T00:08:48;53491.88;;;-144.69;69.81
56658;BME280;42530;52.240;19.354;2022-12-05T00:11:19;53462.75;;;-144.69;70.08
56658;BME280;42530;52.240;19.354;2022-12-05T00:13:45;53469.00;;;-144.69;69.70
56658;BME280;42530;52.240;19.354;2022-12-05T00:16:14;53527.25;;;-144.69;69.92
56658;BME280;42530;52.240;19.354;2022-12-05T00:18:40;53498.13;;;-144.69;70.07
56658;BME280;42530;52.240;19.354;2022-12-05T00:21:11;64627.38;;;-144.69;100.00
56658;BME280;42530;52.240;19.354;2022-12-05T00:23:37;64627.38;;;-144.69;100.00
56658;BME280;42530;52.240;19.354;2022-12-05T00:26:04;64627.38;;;-144.69;100.00
56658;BME280;42530;52.240;19.354;2022-12-05T00:28:31;64627.38;;;-144.69;100.00
56658;BME280;42530;52.240;19.354;2022-12-05T00:30:56;64627.38;;;-144.69;100.00
56658;BME280;42530;52.240;19.354;2022-12-05T00:33:22;64627.38;;;-144.69;100.00
56658;BME280;42530;52.240;19.354;2022-12-05T00:35:47;64627.38;;;-144.69;100.00
56658;BME280;42530;52.240;19.354;2022-12-05T00:38:13;64627.38;;;-144.69;100.00
56658;BME280;42530;52.240;19.354;2022-12-05T00:40:38;64627.38;;;-144.69;100.00
56658;BME280;42530;52.240;19.354;2022-12-05T00:43:04;64627.38;;;-144.69;100.00
56658;BME280;42530;52.240;19.354;2022-12-05T00:45:29;64627.38;;;-144.69;100.00
56658;BME280;42530;52.240;19.354;2022-12-05T00:47:55;64627.38;;;-144.69;100.00
56658;BME280;42530;52.240;19.354;2022-12-05T00:50:20;64627.38;;;-144.69;100.00
56658;BME280;42530;52.240;19.354;2022-12-05T00:52:46;64627.38;;;-144.69;100.00
56658;BME280;42530;52.240;19.354;2022-12-05T00:55:12;64627.38;;;-144.69;100.00
56658;BME280;42530;52.240;19.354;2022-12-05T00:57:37;64627.38;;;-144.69;100.00
56658;BME280;42530;52.240;19.354;2022-12-05T01:00:05;64627.38;;;-144.69;100.00
56658;BME280;42530;52.240;19.354;2022-12-05T01:02:30;64627.38;;;-144.69;100.00
56658;BME280;42530;52.240;19.354;2022-12-05T01:04:56;64627.38;;;-144.69;100.00
56658;BME280;42530;52.240;19.354;2022-12-05T01:07:22;64627.38;;;-144.69;100.00
56658;BME280;42530;52.240;19.354;2022-12-05T01:09:47;64627.38;;;-144.69;100.00
56658;BME280;42530;52.240;19.354;2022-12-05T01:12:13;64627.38;;;-144.69;100.00
56658;BME280;42530;52.240;19.354;2022-12-05T01:14:39;64627.38;;;-144.69;100.00
56658;BME280;42530;52.240;19.354;2022-12-05T01:17:04;64627.38;;;-144.69;100.00
56658;BME280;42530;52.240;19.354;2022-12-05T01:19:31;64627.38;;;-144.69;100.00
56658;BME280;42530;52.240;19.354;2022-12-05T01:21:57;64627.38;;;-144.69;100.00
56658;BME280;42530;52.240;19.354;2022-12-05T01:24:24;64627.38;;;-144.69;100.00
56658;BME280;42530;52.240;19.354;2022-12-05T01:26:50;64627.38;;;-144.69;100.00
56658;BME280;42530;52.240;19.354;2022-12-05T01:29:18;64627.38;;;-144.69;100.00
56658;BME280;42530;52.240;19.354;2022-12-05T01:31:44;64627.38;;;-144.69;100.00
56658;BME280;42530;52.240;19.354;2022-12-05T01:34:12;64627.38;;;-144.69;100.00
56658;BME280;42530;52.240;19.354;2022-12-05T01:36:39;64627.38;;;-144.69;100.00
56658;BME280;42530;52.240;19.354;2022-12-05T01:39:06;64627.38;;;-144.69;100.00
56658;BME280;42530;52.240;19.354;2022-12-05T01:41:34;64627.38;;;-144.69;100.00
56658;BME280;42530;52.240;19.354;2022-12-05T01:46:36;64627.38;;;-144.69;100.00
56658;BME280;42530;52.240;19.354;2022-12-05T01:49:10;64627.38;;;-144.69;100.00
56658;BME280;42530;52.240;19.354;2022-12-05T01:51:39;64627.38;;;-144.69;100.00
56658;BME280;42530;52.240;19.354;2022-12-05T01:54:06;64627.38;;;-144.69;100.00
56658;BME280;42530;52.240;19.354;2022-12-05T01:56:34;64627.38;;;-144.69;100.00
56658;BME280;42530;52.240;19.354;2022-12-05T01:59:02;64627.38;;;-144.69;100.00
56658;BME280;42530;52.240;19.354;2022-12-05T02:01:28;64627.38;;;-144.69;100.00
56658;BME280;42530;52.240;19.354;2022-12-05T02:03:56;64627.38;;;-144.69;100.00
56658;BME280;42530;52.240;19.354;2022-12-05T02:06:24;64627.38;;;-144.69;100.00
56658;BME280;42530;52.240;19.354;2022-12-05T02:08:52;64627.38;;;-144.69;100.00
56658;BME280;42530;52.240;19.354;2022-12-05T02:11:18;64627.38;;;-144.69;100.00
56658;BME280;42530;52.240;19.354;2022-12-05T02:14:05;64627.38;;;-144.69;100.00
56658;BME280;42530;52.240;19.354;2022-12-05T02:19:36;64627.38;;;-144.69;100.00
56658;BME280;42530;52.240;19.354;2022-12-05T02:31:18;64627.38;;;-144.69;100.00
56658;BME280;42530;52.240;19.354;2022-12-05T02:33:34;64627.38;;;-144.69;100.00
56658;BME280;42530;52.240;19.354;2022-12-05T02:36:07;64627.38;;;-144.69;100.00
56658;BME280;42530;52.240;19.354;2022-12-05T02:41:22;64627.38;;;-144.69;100.00
56658;BME280;42530;52.240;19.354;2022-12-05T02:43:53;64627.38;;;-144.69;100.00
56658;BME280;42530;52.240;19.354;2022-12-05T02:46:23;64627.38;;;-144.69;100.00
56658;BME280;42530;52.240;19.354;2022-12-05T02:48:54;64627.38;;;-144.69;100.00
56658;BME280;42530;52.240;19.354;2022-12-05T02:51:23;64627.38;;;-144.69;100.00
56658;BME280;42530;52.240;19.354;2022-12-05T02:53:50;64627.38;;;-144.69;100.00
56658;BME280;42530;52.240;19.354;2022-12-05T02:56:18;64627.38;;;-144.69;100.00
56658;BME280;42530;52.240;19.354;2022-12-05T02:58:54;64627.38;;;-144.69;100.00
56658;BME280;42530;52.240;19.354;2022-12-05T03:01:22;64627.38;;;-144.69;100.00
56658;BME280;42530;52.240;19.354;2022-12-05T03:03:49;64627.38;;;-144.69;100.00
56658;BME280;42530;52.240;19.354;2022-12-05T03:06:24;64627.38;;;-144.69;100.00
56658;BME280;42530;52.240;19.354;2022-12-05T03:08:59;64627.38;;;-144.69;100.00
56658;BME280;42530;52.240;19.354;2022-12-05T03:11:28;64627.38;;;-144.69;100.00
56658;BME280;42530;52.240;19.354;2022-12-05T03:13:57;64627.38;;;-144.69;100.00
56658;BME280;42530;52.240;19.354;2022-12-05T03:19:11;64627.38;;;-144.69;100.00
56658;BME280;42530;52.240;19.354;2022-12-05T03:21:47;64627.38;;;-144.69;100.00
56658;BME280;42530;52.240;19.354;2022-12-05T03:24:14;64627.38;;;-144.69;100.00
56658;BME280;42530;52.240;19.354;2022-12-05T03:29:35;64627.38;;;-144.69;100.00
56658;BME280;42530;52.240;19.354;2022-12-05T03:37:52;64627.38;;;-144.69;100.00
56658;BME280;42530;52.240;19.354;2022-12-05T03:40:37;64627.38;;;-144.69;100.00
56658;BME280;42530;52.240;19.354;2022-12-05T03:45:43;64627.38;;;-144.69;100.00
56658;BME280;42530;52.240;19.354;2022-12-05T03:48:22;64627.38;;;-144.69;100.00
56658;BME280;42530;52.240;19.354;2022-12-05T03:50:53;64627.38;;;-144.69;100.00
56658;BME280;42530;52.240;19.354;2022-12-05T03:53:36;64627.38;;;-144.69;100.00
56658;BME280;42530;52.240;19.354;2022-12-05T03:56:17;64627.38;;;-144.69;100.00
56658;BME280;42530;52.240;19.354;2022-12-05T03:59:03;64627.38;;;-144.69;100.00
56658;BME280;42530;52.240;19.354;2022-12-05T04:01:29;64627.38;;;-144.69;100.00
56658;BME280;42530;52.240;19.354;2022-12-05T04:04:01;64627.38;;;-144.69;100.00
56658;BME280;42530;52.240;19.354;2022-12-05T04:06:34;64627.38;;;-144.69;100.00
56658;BME280;42530;52.240;19.354;2022-12-05T04:09:14;53460.66;;;-144.69;69.85
56658;BME280;42530;52.240;19.354;2022-12-05T04:11:46;53460.66;;;-144.69;69.85
56658;BME280;42530;52.240;19.354;2022-12-05T04:14:17;53404.63;;;-144.69;100.00
56658;BME280;42530;52.240;19.354;2022-12-05T04:16:55;53460.66;;;-144.69;69.85
56658;BME280;42530;52.240;19.354;2022-12-05T04:19:51;53460.66;;;-144.69;69.85
56658;BME280;42530;52.240;19.354;2022-12-05T04:22:37;53460.66;;;-144.69;69.85
56658;BME280;42530;52.240;19.354;2022-12-05T04:25:05;53460.66;;;-144.69;69.85
56658;BME280;42530;52.240;19.354;2022-12-05T04:28:04;53460.66;;;-144.69;69.85
56658;BME280;42530;52.240;19.354;2022-12-05T04:30:53;53460.66;;;-144.69;69.85
56658;BME280;42530;52.240;19.354;2022-12-05T04:36:06;53489.78;;;-144.69;69.07
56658;BME280;42530;52.240;19.354;2022-12-05T04:41:18;53498.13;;;-144.69;68.98
56658;BME280;42530;52.240;19.354;2022-12-05T04:43:46;53473.16;;;-144.69;68.68
56658;BME280;42530;52.240;19.354;2022-12-05T04:46:15;53473.16;;;-144.69;68.68
56658;BME280;42530;52.240;19.354;2022-12-05T04:48:44;53473.16;;;-144.69;68.68
56658;BME280;42530;52.240;19.354;2022-12-05T04:51:16;53477.31;;;-144.69;69.06
56658;BME280;42530;52.240;19.354;2022-12-05T04:53:44;53493.97;;;-144.69;68.87
56658;BME280;42530;52.240;19.354;2022-12-05T04:56:13;53483.69;;;-144.69;68.87
56658;BME280;42530;52.240;19.354;2022-12-05T04:58:40;64627.38;;;-96.48;100.00
56658;BME280;42530;52.240;19.354;2022-12-05T05:02:17;64627.38;;;-144.69;100.00
56658;BME280;42530;52.240;19.354;2022-12-05T05:04:42;64627.38;;;-144.69;100.00
56658;BME280;42530;52.240;19.354;2022-12-05T05:07:11;64627.38;;;-144.69;100.00
56658;BME280;42530;52.240;19.354;2022-12-05T05:09:37;64627.38;;;-144.69;100.00
56658;BME280;42530;52.240;19.354;2022-12-05T05:12:03;64627.38;;;-144.69;100.00
56658;BME280;42530;52.240;19.354;2022-12-05T05:14:29;64627.38;;;-144.69;100.00
56658;BME280;42530;52.240;19.354;2022-12-05T05:16:55;64627.38;;;-144.69;100.00
56658;BME280;42530;52.240;19.354;2022-12-05T05:19:21;64627.38;;;-144.69;100.00
56658;BME280;42530;52.240;19.354;2022-12-05T05:21:47;64627.38;;;-144.69;100.00
56658;BME280;42530;52.240;19.354;2022-12-05T05:24:13;64627.38;;;-144.69;100.00
56658;BME280;42530;52.240;19.354;2022-12-05T05:26:44;64627.38;;;-144.69;100.00
56658;BME280;42530;52.240;19.354;2022-12-05T05:29:11;64627.38;;;-144.69;100.00
56658;BME280;42530;52.240;19.354;2022-12-05T05:31:38;64627.38;;;-144.69;100.00
56658;BME280;42530;52.240;19.354;2022-12-05T05:34:04;64627.38;;;-144.69;100.00
56658;BME280;42530;52.240;19.354;2022-12-05T05:36:30;64627.38;;;-144.69;100.00
56658;BME280;42530;52.240;19.354;2022-12-05T05:38:58;64627.38;;;-144.69;100.00
56658;BME280;42530;52.240;19.354;2022-12-05T05:41:32;64627.38;;;-144.69;100.00
56658;BME280;42530;52.240;19.354;2022-12-05T05:43:58;64627.38;;;-144.69;100.00
56658;BME280;42530;52.240;19.354;2022-12-05T05:46:26;64627.38;;;-144.69;100.00
56658;BME280;42530;52.240;19.354;2022-12-05T05:48:54;64627.38;;;-144.69;100.00
56658;BME280;42530;52.240;19.354;2022-12-05T05:51:21;64627.38;;;-144.69;100.00
56658;BME280;42530;52.240;19.354;2022-12-05T05:53:47;53510.59;;;-144.69;68.82
56658;BME280;42530;52.240;19.354;2022-12-05T05:56:17;53498.13;;;-144.69;69.16
56658;BME280;42530;52.240;19.354;2022-12-05T05:58:44;37823.31;;;-144.69;100.00
56658;BME280;42530;52.240;19.354;2022-12-05T06:03:35;53502.28;;;-144.69;68.87
56658;BME280;42530;52.240;19.354;2022-12-05T06:06:04;53502.28;;;-144.69;68.87
56658;BME280;42530;52.240;19.354;2022-12-05T06:08:31;53466.91;;;-144.69;69.11
56658;BME280;42530;52.240;19.354;2022-12-05T06:10:57;53473.16;;;-144.69;69.48
56658;BME280;42530;52.240;19.354;2022-12-05T06:13:23;53473.16;;;-144.69;69.48
56658;BME280;42530;52.240;19.354;2022-12-05T06:15:48;53473.16;;;-144.69;69.48
56658;BME280;42530;52.240;19.354;2022-12-05T06:18:14;53473.16;;;-144.69;69.48
56658;BME280;42530;52.240;19.354;2022-12-05T06:20:39;53493.97;;;-144.69;69.31
56658;BME280;42530;52.240;19.354;2022-12-05T06:23:04;53493.97;;;-144.69;69.31
56658;BME280;42530;52.240;19.354;2022-12-05T06:25:30;53493.97;;;-144.69;69.31
56658;BME280;42530;52.240;19.354;2022-12-05T06:27:55;53531.41;;;-144.69;68.83
56658;BME280;42530;52.240;19.354;2022-12-05T06:30:21;53489.78;;;-144.69;68.78
56658;BME280;42530;52.240;19.354;2022-12-05T06:32:46;53471.06;;;-144.69;68.71
56658;BME280;42530;52.240;19.354;2022-12-05T06:35:12;53481.47;;;-144.69;69.20
56658;BME280;42530;52.240;19.354;2022-12-05T06:37:44;53469.00;;;-97.79;68.96
56658;BME280;42530;52.240;19.354;2022-12-05T06:40:11;53479.38;;;-144.69;69.06
56658;BME280;42530;52.240;19.354;2022-12-05T06:42:36;53477.31;;;-144.69;68.80
56658;BME280;42530;52.240;19.354;2022-12-05T06:45:03;53502.28;;;-144.69;69.09
56658;BME280;42530;52.240;19.354;2022-12-05T06:47:28;53502.28;;;-144.69;69.09
56658;BME280;42530;52.240;19.354;2022-12-05T06:49:54;53502.28;;;-144.69;69.09
56658;BME280;42530;52.240;19.354;2022-12-05T06:52:20;53502.28;;;-144.69;69.09
56658;BME280;42530;52.240;19.354;2022-12-05T06:54:45;53527.25;;;-144.69;68.51
56658;BME280;42530;52.240;19.354;2022-12-05T06:57:12;53527.25;;;-144.69;68.51
56658;BME280;42530;52.240;19.354;2022-12-05T06:59:37;75143.75;;;-144.69;68.51
56658;BME280;42530;52.240;19.354;2022-12-05T07:02:03;53489.78;;;-144.69;69.01
56658;BME280;42530;52.240;19.354;2022-12-05T07:04:32;53491.88;;;-144.69;68.63
56658;BME280;42530;52.240;19.354;2022-12-05T07:06:58;53506.44;;;-144.69;69.08
56658;BME280;42530;52.240;19.354;2022-12-05T07:09:25;75184.25;;;-144.69;69.08
56658;BME280;42530;52.240;19.354;2022-12-05T07:12:10;53506.44;;;-144.69;69.08
56658;BME280;42530;52.240;19.354;2022-12-05T07:14:36;53506.44;;;-144.69;68.64
56658;BME280;42530;52.240;19.354;2022-12-05T07:17:01;53506.44;;;-144.69;68.64
56658;BME280;42530;52.240;19.354;2022-12-05T07:19:27;53506.44;;;-144.69;68.64
56658;BME280;42530;52.240;19.354;2022-12-05T07:21:52;53506.44;;;-144.69;68.64
56658;BME280;42530;52.240;19.354;2022-12-05T07:24:18;53506.44;;;-144.69;68.64
56658;BME280;42530;52.240;19.354;2022-12-05T07:26:44;121167.34;;;-144.69;76.04
56658;BME280;42530;52.240;19.354;2022-12-05T07:29:09;64627.66;;;-144.69;100.00
56658;BME280;42530;52.240;19.354;2022-12-05T07:31:35;64627.38;;;-144.69;100.00
56658;BME280;42530;52.240;19.354;2022-12-05T07:34:01;64627.38;;;-144.69;100.00
56658;BME280;42530;52.240;19.354;2022-12-05T07:36:27;64627.38;;;-144.69;100.00
56658;BME280;42530;52.240;19.354;2022-12-05T07:38:56;64627.38;;;-144.69;100.00
56658;BME280;42530;52.240;19.354;2022-12-05T07:41:25;64627.38;;;-144.69;100.00
56658;BME280;42530;52.240;19.354;2022-12-05T07:43:52;64627.38;;;-144.69;100.00
56658;BME280;42530;52.240;19.354;2022-12-05T07:46:18;64627.38;;;-144.69;100.00
56658;BME280;42530;52.240;19.354;2022-12-05T07:48:44;64627.38;;;-144.69;100.00
56658;BME280;42530;52.240;19.354;2022-12-05T07:51:10;64627.38;;;-144.69;100.00
56658;BME280;42530;52.240;19.354;2022-12-05T07:53:36;64627.38;;;-144.69;100.00
56658;BME280;42530;52.240;19.354;2022-12-05T07:56:04;64627.38;;;-144.69;100.00
56658;BME280;42530;52.240;19.354;2022-12-05T07:58:31;53506.44;;;-144.69;68.64
56658;BME280;42530;52.240;19.354;2022-12-05T08:01:08;53506.44;;;-144.69;68.64
56658;BME280;42530;52.240;19.354;2022-12-05T08:03:35;53523.09;;;-144.69;100.00
56658;BME280;42530;52.240;19.354;2022-12-05T08:06:10;53502.28;;;-144.69;68.54
56658;BME280;42530;52.240;19.354;2022-12-05T08:08:37;53485.63;;;-144.69;68.30
56658;BME280;42530;52.240;19.354;2022-12-05T08:11:13;53485.63;;;-144.69;68.30
56658;BME280;42530;52.240;19.354;2022-12-05T08:13:39;53535.56;;;-144.69;68.37
56658;BME280;42530;52.240;19.354;2022-12-05T08:16:09;53531.41;;;-144.69;68.33
56658;BME280;42530;52.240;19.354;2022-12-05T08:18:35;53508.53;;;-144.69;68.65
56658;BME280;42530;52.240;19.354;2022-12-05T08:21:02;53477.31;;;-144.69;68.53
56658;BME280;42530;52.240;19.354;2022-12-05T08:23:29;53477.31;;;-144.69;68.53
56658;BME280;42530;52.240;19.354;2022-12-05T08:25:55;53531.41;;;-144.69;68.79
56658;BME280;42530;52.240;19.354;2022-12-05T08:28:20;53531.41;;;-144.69;68.79
56658;BME280;42530;52.240;19.354;2022-12-05T08:30:46;53493.97;;;-144.69;68.50
56658;BME280;42530;52.240;19.354;2022-12-05T08:33:11;53493.97;;;-144.69;68.50
56658;BME280;42530;52.240;19.354;2022-12-05T08:35:37;53493.97;;;-144.69;68.50
56658;BME280;42530;52.240;19.354;2022-12-05T08:38:02;53493.97;;;-144.69;68.50
56658;BME280;42530;52.240;19.354;2022-12-05T08:40:28;53473.16;;;-144.69;68.42
56658;BME280;42530;52.240;19.354;2022-12-05T08:42:55;53473.16;;;-144.69;68.42
56658;BME280;42530;52.240;19.354;2022-12-05T08:45:22;64627.38;;;-144.69;100.00
56658;BME280;42530;52.240;19.354;2022-12-05T08:47:47;64627.38;;;-144.69;100.00
56658;BME280;42530;52.240;19.354;2022-12-05T08:50:12;64627.38;;;-144.69;100.00
56658;BME280;42530;52.240;19.354;2022-12-05T08:52:38;64627.38;;;-144.69;100.00
56658;BME280;42530;52.240;19.354;2022-12-05T08:55:04;64627.38;;;-144.69;100.00
56658;BME280;42530;52.240;19.354;2022-12-05T08:57:29;64627.38;;;-144.69;100.00
56658;BME280;42530;52.240;19.354;2022-12-05T08:59:54;64627.38;;;-144.69;100.00
56658;BME280;42530;52.240;19.354;2022-12-05T09:02:20;64627.38;;;-144.69;100.00
56658;BME280;42530;52.240;19.354;2022-12-05T09:04:49;64627.38;;;-144.69;100.00
56658;BME280;42530;52.240;19.354;2022-12-05T09:07:15;64627.38;;;-144.69;100.00
56658;BME280;42530;52.240;19.354;2022-12-05T09:09:40;64627.38;;;-144.69;100.00
56658;BME280;42530;52.240;19.354;2022-12-05T09:12:06;64627.38;;;-144.69;100.00
56658;BME280;42530;52.240;19.354;2022-12-05T09:14:31;64627.38;;;-144.69;100.00
56658;BME280;42530;52.240;19.354;2022-12-05T09:16:58;64627.38;;;-144.69;100.00
56658;BME280;42530;52.240;19.354;2022-12-05T09:19:24;64627.38;;;-144.69;100.00
56658;BME280;42530;52.240;19.354;2022-12-05T09:21:52;64627.38;;;-144.69;100.00
56658;BME280;42530;52.240;19.354;2022-12-05T09:24:18;64627.38;;;-144.69;100.00
56658;BME280;42530;52.240;19.354;2022-12-05T09:26:44;64627.38;;;-144.69;100.00
56658;BME280;42530;52.240;19.354;2022-12-05T09:29:11;64627.38;;;-144.69;100.00
56658;BME280;42530;52.240;19.354;2022-12-05T09:31:37;64627.38;;;-144.69;100.00
56658;BME280;42530;52.240;19.354;2022-12-05T09:34:03;64627.38;;;-144.69;100.00
56658;BME280;42530;52.240;19.354;2022-12-05T09:36:29;64627.38;;;-144.69;100.00
56658;BME280;42530;52.240;19.354;2022-12-05T09:39:00;64627.38;;;-144.69;100.00
56658;BME280;42530;52.240;19.354;2022-12-05T09:46:55;64627.38;;;-144.69;100.00
56658;BME280;42530;52.240;19.354;2022-12-05T09:49:22;64627.38;;;-144.69;100.00
56658;BME280;42530;52.240;19.354;2022-12-05T09:51:49;64627.38;;;-144.69;100.00
56658;BME280;42530;52.240;19.354;2022-12-05T09:54:15;64627.38;;;-144.69;100.00
56658;BME280;42530;52.240;19.354;2022-12-05T09:56:43;64627.38;;;-144.69;100.00
56658;BME280;42530;52.240;19.354;2022-12-05T09:59:13;64627.38;;;-144.69;100.00
56658;BME280;42530;52.240;19.354;2022-12-05T10:01:57;64627.38;;;-144.69;100.00
56658;BME280;42530;52.240;19.354;2022-12-05T10:07:40;64627.38;;;-144.69;100.00
56658;BME280;42530;52.240;19.354;2022-12-05T10:10:27;64627.38;;;-144.69;100.00
56658;BME280;42530;52.240;19.354;2022-12-05T10:15:41;64627.38;;;-144.69;100.00
56658;BME280;42530;52.240;19.354;2022-12-05T10:23:57;64627.38;;;-144.69;100.00
56658;BME280;42530;52.240;19.354;2022-12-05T10:26:33;64627.38;;;-144.69;100.00
56658;BME280;42530;52.240;19.354;2022-12-05T10:29:22;64627.38;;;-144.69;100.00
56658;BME280;42530;52.240;19.354;2022-12-05T10:31:55;64627.38;;;-144.69;100.00
56658;BME280;42530;52.240;19.354;2022-12-05T10:34:36;64627.38;;;-144.69;100.00
56658;BME280;42530;52.240;19.354;2022-12-05T10:39:38;64627.38;;;-144.69;100.00
56658;BME280;42530;52.240;19.354;2022-12-05T10:42:04;64627.38;;;-144.69;100.00
56658;BME280;42530;52.240;19.354;2022-12-05T10:44:32;64627.38;;;-144.69;100.00
56658;BME280;42530;52.240;19.354;2022-12-05T10:46:58;64627.38;;;-144.69;100.00
56658;BME280;42530;52.240;19.354;2022-12-05T10:49:24;64627.38;;;-144.69;100.00
56658;BME280;42530;52.240;19.354;2022-12-05T10:51:50;64627.38;;;-144.69;100.00
56658;BME280;42530;52.240;19.354;2022-12-05T10:54:24;64627.38;;;-144.69;100.00
56658;BME280;42530;52.240;19.354;2022-12-05T10:56:52;64627.38;;;-144.69;100.00
56658;BME280;42530;52.240;19.354;2022-12-05T10:59:24;64627.38;;;-144.69;100.00
56658;BME280;42530;52.240;19.354;2022-12-05T11:01:54;64627.38;;;-144.69;100.00
56658;BME280;42530;52.240;19.354;2022-12-05T11:04:27;64627.38;;;-144.69;100.00
56658;BME280;42530;52.240;19.354;2022-12-05T11:07:00;64627.38;;;-144.69;100.00
56658;BME280;42530;52.240;19.354;2022-12-05T11:09:31;53502.03;;;-144.69;72.09
56658;BME280;42530;52.240;19.354;2022-12-05T11:12:13;53502.28;;;-144.69;67.14
56658;BME280;42530;52.240;19.354;2022-12-05T11:14:40;53502.28;;;-144.69;100.00
56658;BME280;42530;52.240;19.354;2022-12-05T11:17:23;53502.28;;;-144.69;67.14
56658;BME280;42530;52.240;19.354;2022-12-05T11:19:49;53527.25;;;-144.69;67.59
56658;BME280;42530;52.240;19.354;2022-12-05T11:22:16;53502.28;;;-144.69;67.88
56658;BME280;42530;52.240;19.354;2022-12-05T11:24:42;64627.38;;;-144.69;100.00
56658;BME280;42530;52.240;19.354;2022-12-05T11:29:44;53500.19;;;-144.69;67.37
56658;BME280;42530;52.240;19.354;2022-12-05T11:32:20;53512.69;;;-144.69;67.07
56658;BME280;42530;52.240;19.354;2022-12-05T11:37:42;53471.06;;;-144.69;67.32
56658;BME280;42530;52.240;19.354;2022-12-05T11:40:20;53489.78;;;-144.69;67.68
56658;BME280;42530;52.240;19.354;2022-12-05T11:48:44;53493.97;;;-144.69;67.12
56658;BME280;42530;52.240;19.354;2022-12-05T11:53:57;53516.84;;;-144.69;67.26
56658;BME280;42530;52.240;19.354;2022-12-05T11:56:42;53489.78;;;-144.69;67.48
56658;BME280;42530;52.240;19.354;2022-12-05T11:59:53;53502.28;;;-144.69;68.12
56658;BME280;42530;52.240;19.354;2022-12-05T12:02:51;53516.84;;;-144.69;68.18
56658;BME280;42530;52.240;19.354;2022-12-05T12:05:28;53487.72;;;-144.69;68.30
56658;BME280;42530;52.240;19.354;2022-12-05T12:08:05;53506.44;;;-144.69;67.83
56658;BME280;42530;52.240;19.354;2022-12-05T12:10:41;53458.59;;;-144.69;67.93
56658;BME280;42530;52.240;19.354;2022-12-05T12:13:19;53473.16;;;-144.69;68.11
56658;BME280;42530;52.240;19.354;2022-12-05T12:18:42;53481.47;;;-144.69;68.49
56658;BME280;42530;52.240;19.354;2022-12-05T12:32:05;53516.84;;;-144.69;67.84
56658;BME280;42530;52.240;19.354;2022-12-05T12:37:35;53510.59;;;-144.69;67.82
56658;BME280;42530;52.240;19.354;2022-12-05T12:40:13;53512.69;;;-144.69;68.09
56658;BME280;42530;52.240;19.354;2022-12-05T12:42:55;53473.16;;;-144.69;68.19
56658;BME280;42530;52.240;19.354;2022-12-05T12:50:36;53489.78;;;-144.69;68.36
56658;BME280;42530;52.240;19.354;2022-12-05T12:58:52;53498.13;;;-144.69;67.79
56658;BME280;42530;52.240;19.354;2022-12-05T13:01:38;53521.00;;;-144.69;67.50
56658;BME280;42530;52.240;19.354;2022-12-05T13:04:15;53504.34;;;-144.69;68.48
56658;BME280;42530;52.240;19.354;2022-12-05T13:06:47;53493.97;;;-144.69;68.01
56658;BME280;42530;52.240;19.354;2022-12-05T13:09:29;53473.16;;;-144.69;67.75
56658;BME280;42530;52.240;19.354;2022-12-05T13:12:00;53564.69;;;-144.69;68.53
56658;BME280;42530;52.240;19.354;2022-12-05T13:14:29;64627.66;;;-144.69;42.55
56658;BME280;42530;52.240;19.354;2022-12-05T13:16:57;53471.06;;;-144.69;100.00
56658;BME280;42530;52.240;19.354;2022-12-05T13:22:04;53477.31;;;-144.69;68.52
56658;BME280;42530;52.240;19.354;2022-12-05T13:24:30;53477.31;;;-144.69;100.00
56658;BME280;42530;52.240;19.354;2022-12-05T13:27:00;53506.44;;;-144.69;68.66
56658;BME280;42530;52.240;19.354;2022-12-05T13:29:34;53537.66;;;-144.69;68.00
56658;BME280;42530;52.240;19.354;2022-12-05T13:32:02;53510.59;;;-144.69;68.44
56658;BME280;42530;52.240;19.354;2022-12-05T13:37:09;53518.91;;;-144.69;68.51
56658;BME280;42530;52.240;19.354;2022-12-05T13:39:55;53504.34;;;-144.69;68.53
56658;BME280;42530;52.240;19.354;2022-12-05T13:42:40;53506.44;;;-144.69;68.68
56658;BME280;42530;52.240;19.354;2022-12-05T13:45:08;53527.25;;;-144.69;68.76
56658;BME280;42530;52.240;19.354;2022-12-05T13:50:17;53487.72;;;-144.69;68.01
56658;BME280;42530;52.240;19.354;2022-12-05T13:52:47;53489.78;;;-144.69;68.55
56658;BME280;42530;52.240;19.354;2022-12-05T13:57:47;53518.91;;;-144.69;68.34
56658;BME280;42530;52.240;19.354;2022-12-05T14:07:45;64627.38;;;-144.69;100.00
56658;BME280;42530;52.240;19.354;2022-12-05T14:10:14;64627.38;;;-144.69;100.00
56658;BME280;42530;52.240;19.354;2022-12-05T14:12:46;64627.38;;;-144.69;100.00
56658;BME280;42530;52.240;19.354;2022-12-05T14:28:20;64627.38;;;-144.69;100.00
56658;BME280;42530;52.240;19.354;2022-12-05T14:31:07;64627.38;;;-144.69;100.00
56658;BME280;42530;52.240;19.354;2022-12-05T14:33:39;64627.38;;;-144.69;100.00
56658;BME280;42530;52.240;19.354;2022-12-05T14:36:06;64627.38;;;-144.69;100.00
56658;BME280;42530;52.240;19.354;2022-12-05T14:38:34;64627.38;;;-144.69;100.00
56658;BME280;42530;52.240;19.354;2022-12-05T14:41:26;64627.38;;;-144.69;100.00
56658;BME280;42530;52.240;19.354;2022-12-05T14:43:55;64627.38;;;-144.69;100.00
56658;BME280;42530;52.240;19.354;2022-12-05T14:46:30;64627.38;;;-144.69;100.00
56658;BME280;42530;52.240;19.354;2022-12-05T14:52:10;64627.38;;;-144.69;100.00
56658;BME280;42530;52.240;19.354;2022-12-05T14:54:37;64627.38;;;-144.69;100.00